createdAt,value
2022-12-16T00:02:04.980Z,95865.00
2022-12-16T00:04:33.058Z,95855.00
2022-12-16T00:07:01.091Z,95854.00
2022-12-16T00:09:29.279Z,95807.00
2022-12-16T00:12:02.341Z,95842.00
2022-12-16T00:14:30.359Z,95837.00
2022-12-16T00:16:58.373Z,95840.00
2022-12-16T00:19:27.753Z,95839.00
2022-12-16T00:21:55.730Z,95837.00
2022-12-16T00:24:23.860Z,95839.00
2022-12-16T00:26:52.348Z,95835.00
2022-12-16T00:29:20.408Z,95864.00
2022-12-16T00:31:48.507Z,95828.00
2022-12-16T00:34:17.168Z,95846.00
2022-12-16T00:36:46.502Z,95830.00
2022-12-16T00:39:14.698Z,95836.00
2022-12-16T00:41:42.734Z,95836.00
2022-12-16T00:44:10.713Z,95829.00
2022-12-16T00:46:38.717Z,95842.00
2022-12-16T00:49:07.186Z,95828.00
2022-12-16T00:51:35.495Z,95836.00
2022-12-16T00:54:05.137Z,95830.00
2022-12-16T00:56:33.142Z,95824.00
2022-12-16T00:59:01.899Z,95830.00
2022-12-16T01:01:30.027Z,95830.00
2022-12-16T01:03:58.651Z,95846.00
2022-12-16T01:06:26.746Z,95838.00
2022-12-16T01:08:55.039Z,95852.00
2022-12-16T01:11:24.460Z,95828.00
2022-12-16T01:13:55.119Z,95829.00
2022-12-16T01:16:24.079Z,95841.00
2022-12-16T01:18:53.353Z,95825.00
2022-12-16T01:21:23.914Z,95862.00
2022-12-16T01:23:51.949Z,95823.00
2022-12-16T01:26:24.761Z,95832.00
2022-12-16T01:28:52.752Z,95835.00
2022-12-16T01:31:24.236Z,95836.00
2022-12-16T01:33:52.678Z,95825.00
2022-12-16T01:36:21.287Z,95829.00
2022-12-16T01:38:49.450Z,95832.00
2022-12-16T01:41:19.040Z,95866.00
2022-12-16T01:43:48.746Z,95772.00
2022-12-16T01:46:24.379Z,95775.00
2022-12-16T01:48:58.937Z,95828.00
2022-12-16T01:51:33.280Z,95825.00
2022-12-16T01:54:07.745Z,95827.00
2022-12-16T01:56:40.867Z,95788.00
2022-12-16T01:59:12.956Z,95840.00
2022-12-16T02:01:41.115Z,95839.00
2022-12-16T02:04:09.331Z,95844.00
2022-12-16T02:06:37.596Z,95839.00
2022-12-16T02:09:11.210Z,95834.00
2022-12-16T02:12:19.975Z,95828.00
2022-12-16T02:15:26.022Z,95836.00
2022-12-16T02:18:03.810Z,95826.00
2022-12-16T02:21:21.394Z,95815.00
2022-12-16T02:24:51.675Z,95819.00
2022-12-16T02:27:54.961Z,95832.00
2022-12-16T02:30:55.344Z,95823.00
2022-12-16T02:33:53.919Z,95829.00
2022-12-16T02:36:51.960Z,95829.00
2022-12-16T02:39:25.721Z,95751.00
2022-12-16T02:42:03.919Z,95819.00
2022-12-16T02:44:45.680Z,95830.00
2022-12-16T02:47:15.182Z,95834.00
2022-12-16T02:49:53.088Z,95745.00
2022-12-16T02:52:25.867Z,95862.00
2022-12-16T02:54:58.038Z,95775.00
2022-12-16T02:57:53.628Z,95841.00
2022-12-16T03:00:24.021Z,95847.00
2022-12-16T03:03:03.530Z,95835.00
2022-12-16T03:05:35.121Z,95841.00
2022-12-16T03:08:08.400Z,95854.00
2022-12-16T03:10:45.262Z,95852.00
2022-12-16T03:13:18.276Z,95842.00
2022-12-16T03:15:49.382Z,95844.00
2022-12-16T03:18:21.223Z,95846.00
2022-12-16T03:20:56.529Z,95851.00
2022-12-16T03:23:32.493Z,95857.00
2022-12-16T03:26:09.297Z,95848.00
2022-12-16T03:28:49.531Z,95852.00
2022-12-16T03:31:31.749Z,95852.00
2022-12-16T03:34:13.614Z,95864.00
2022-12-16T03:36:46.182Z,95855.00
2022-12-16T03:39:16.467Z,95862.00
2022-12-16T03:41:45.729Z,95851.00
2022-12-16T03:44:13.946Z,95862.00
2022-12-16T03:46:42.436Z,95737.00
2022-12-16T03:49:11.880Z,95860.00
2022-12-16T03:51:39.927Z,95870.00
2022-12-16T03:54:08.106Z,95859.00
2022-12-16T03:56:36.126Z,95868.00
2022-12-16T03:59:04.117Z,95866.00
2022-12-16T04:01:32.215Z,95861.00
2022-12-16T04:04:00.296Z,95860.00
2022-12-16T04:06:29.686Z,95870.00
2022-12-16T04:08:57.753Z,95881.00
2022-12-16T04:11:43.464Z,95891.00
2022-12-16T04:14:29.041Z,95881.00
2022-12-16T04:17:15.733Z,95890.00
2022-12-16T04:20:04.179Z,95892.00
2022-12-16T04:22:56.445Z,95882.00
2022-12-16T04:25:28.943Z,95887.00
2022-12-16T04:27:58.710Z,95890.00
2022-12-16T04:30:28.987Z,95916.00
2022-12-16T04:33:19.180Z,95907.00
2022-12-16T04:36:05.327Z,95910.00
2022-12-16T04:38:52.353Z,95893.00
2022-12-16T04:41:37.893Z,95911.00
2022-12-16T04:44:24.371Z,95897.00
2022-12-16T04:47:09.886Z,95893.00
2022-12-16T04:49:55.493Z,95893.00
2022-12-16T04:52:41.587Z,95888.00
2022-12-16T04:55:29.855Z,95892.00
2022-12-16T04:58:19.445Z,95888.00
2022-12-16T05:01:07.908Z,95896.00
2022-12-16T05:03:54.330Z,95929.00
2022-12-16T05:06:40.115Z,95905.00
2022-12-16T05:09:26.801Z,95911.00
2022-12-16T05:12:13.578Z,95912.00
2022-12-16T05:14:59.139Z,95911.00
2022-12-16T05:17:44.865Z,95903.00
2022-12-16T05:20:30.353Z,95912.00
2022-12-16T05:23:17.016Z,95911.00
2022-12-16T05:26:03.118Z,95829.00
2022-12-16T05:28:49.983Z,95928.00
2022-12-16T05:31:35.661Z,95919.00
2022-12-16T05:34:21.509Z,95920.00
2022-12-16T05:37:07.015Z,95929.00
2022-12-16T05:39:52.896Z,95925.00
2022-12-16T05:42:38.435Z,95921.00
2022-12-16T05:45:26.950Z,95921.00
2022-12-16T05:48:11.716Z,95934.00
2022-12-16T05:50:57.308Z,95918.00
2022-12-16T05:53:42.921Z,95935.00
2022-12-16T05:56:28.417Z,95936.00
2022-12-16T05:59:13.979Z,95940.00
2022-12-16T06:02:00.990Z,95954.00
2022-12-16T06:04:46.838Z,95960.00
2022-12-16T06:07:32.553Z,95963.00
2022-12-16T06:10:18.074Z,95919.00
2022-12-16T06:13:05.626Z,95966.00
2022-12-16T06:15:51.224Z,95950.00
2022-12-16T06:18:38.410Z,95958.00
2022-12-16T06:21:24.297Z,95967.00
2022-12-16T06:24:09.965Z,95958.00
2022-12-16T06:26:55.362Z,95965.00
2022-12-16T06:29:41.157Z,95977.00
2022-12-16T06:32:26.829Z,95994.00
2022-12-16T06:35:13.788Z,95991.00
2022-12-16T06:37:59.310Z,96023.00
2022-12-16T06:40:44.757Z,96004.00
2022-12-16T06:43:30.513Z,96012.00
2022-12-16T06:46:16.737Z,96015.00
2022-12-16T06:49:02.402Z,96013.00
2022-12-16T06:51:49.254Z,96011.00
2022-12-16T06:54:34.817Z,96019.00
2022-12-16T06:57:20.430Z,96025.00
2022-12-16T07:00:06.134Z,96042.00
2022-12-16T07:02:51.657Z,96032.00
2022-12-16T07:05:37.429Z,96057.00
2022-12-16T07:08:24.674Z,96042.00
2022-12-16T07:11:16.657Z,96052.00
2022-12-16T07:14:03.098Z,96048.00
2022-12-16T07:16:48.704Z,96043.00
2022-12-16T07:19:31.307Z,96054.00
2022-12-16T07:22:17.307Z,96057.00
2022-12-16T07:25:12.687Z,96071.00
2022-12-16T07:27:58.206Z,96062.00
2022-12-16T07:30:43.807Z,96078.00
2022-12-16T07:33:29.317Z,96081.00
2022-12-16T07:36:23.305Z,96081.00
2022-12-16T07:39:09.048Z,96086.00
2022-12-16T07:41:55.927Z,96081.00
2022-12-16T07:44:41.624Z,96073.00
2022-12-16T07:47:27.309Z,96075.00
2022-12-16T07:50:12.968Z,96079.00
2022-12-16T07:52:58.484Z,96075.00
2022-12-16T07:55:52.406Z,96082.00
2022-12-16T07:58:39.548Z,96098.00
2022-12-16T08:01:25.675Z,96121.00
2022-12-16T08:04:11.502Z,96126.00
2022-12-16T08:06:57.043Z,96134.00
2022-12-16T08:09:42.973Z,96122.00
2022-12-16T08:12:28.589Z,96136.00
2022-12-16T08:15:15.772Z,96132.00
2022-12-16T08:18:07.228Z,96127.00
2022-12-16T08:20:52.865Z,96137.00
2022-12-16T08:23:41.261Z,96138.00
2022-12-16T08:26:26.778Z,96142.00
2022-12-16T08:29:42.534Z,96133.00
2022-12-16T08:32:21.023Z,96139.00
2022-12-16T08:35:06.904Z,96145.00
2022-12-16T08:37:52.404Z,96165.00
2022-12-16T08:40:38.322Z,96143.00
2022-12-16T08:43:23.819Z,96157.00
2022-12-16T08:46:12.426Z,96152.00
2022-12-16T08:48:59.355Z,96147.00
2022-12-16T08:51:45.299Z,96175.00
2022-12-16T08:54:30.779Z,96158.00
2022-12-16T08:57:22.202Z,96169.00
2022-12-16T09:00:08.006Z,96168.00
2022-12-16T09:02:55.559Z,96167.00
2022-12-16T09:05:39.081Z,96175.00
2022-12-16T09:08:24.625Z,96173.00
2022-12-16T09:11:10.120Z,96169.00
2022-12-16T09:13:55.844Z,96179.00
2022-12-16T09:16:41.450Z,96186.00
2022-12-16T09:19:28.883Z,96183.00
2022-12-16T09:22:15.736Z,96222.00
2022-12-16T09:25:01.315Z,96209.00
2022-12-16T09:27:46.984Z,96201.00
2022-12-16T09:30:33.175Z,96206.00
2022-12-16T09:33:20.537Z,96210.00
2022-12-16T09:36:06.032Z,96204.00
2022-12-16T09:38:55.225Z,96223.00
2022-12-16T09:42:00.504Z,96219.00
2022-12-16T09:45:09.816Z,96228.00
2022-12-16T09:48:09.816Z,96245.00
2022-12-16T09:51:00.253Z,96165.00
2022-12-16T09:53:50.369Z,96250.00
2022-12-16T09:56:46.740Z,96259.00
2022-12-16T09:59:38.256Z,96138.00
2022-12-16T10:02:30.551Z,96257.00
2022-12-16T10:05:16.597Z,96248.00
2022-12-16T10:08:18.779Z,96272.00
2022-12-16T10:11:14.918Z,96248.00
2022-12-16T10:14:17.817Z,96245.00
2022-12-16T10:17:16.101Z,96276.00
2022-12-16T10:20:17.920Z,96259.00
2022-12-16T10:23:14.346Z,96256.00
2022-12-16T10:26:08.065Z,96255.00
2022-12-16T10:29:05.618Z,96255.00
2022-12-16T10:31:53.533Z,96272.00
2022-12-16T10:34:48.301Z,96263.00
2022-12-16T10:37:51.505Z,96253.00
2022-12-16T10:40:43.264Z,96264.00
2022-12-16T10:43:45.500Z,96203.00
2022-12-16T10:46:40.022Z,96272.00
2022-12-16T10:49:31.178Z,96258.00
2022-12-16T10:52:16.920Z,96267.00
2022-12-16T10:55:14.607Z,96263.00
2022-12-16T10:58:16.539Z,96254.00
2022-12-16T11:01:06.191Z,96269.00
2022-12-16T11:03:56.077Z,96265.00
2022-12-16T11:06:46.991Z,96260.00
2022-12-16T11:09:45.386Z,96279.00
2022-12-16T11:12:43.629Z,96285.00
2022-12-16T11:15:42.536Z,96277.00
2022-12-16T11:18:49.299Z,96275.00
2022-12-16T11:21:39.938Z,96290.00
2022-12-16T11:24:32.904Z,96281.00
2022-12-16T11:27:21.939Z,96190.00
2022-12-16T11:30:16.261Z,96292.00
2022-12-16T11:33:07.089Z,96304.00
2022-12-16T11:35:58.004Z,96304.00
2022-12-16T11:38:59.349Z,96308.00
2022-12-16T11:41:51.996Z,96341.00
2022-12-16T11:44:41.833Z,96303.00
2022-12-16T11:47:40.390Z,96307.00
2022-12-16T11:50:34.542Z,96297.00
2022-12-16T11:53:20.646Z,96291.00
2022-12-16T11:56:15.982Z,96304.00
2022-12-16T11:59:07.409Z,96301.00
2022-12-16T12:02:02.435Z,96319.00
2022-12-16T12:04:48.483Z,96327.00
2022-12-16T12:07:45.994Z,96322.00
2022-12-16T12:10:57.194Z,96311.00
2022-12-16T12:14:07.525Z,96345.00
2022-12-16T12:17:10.665Z,96273.00
2022-12-16T12:20:10.839Z,96326.00
2022-12-16T12:22:57.491Z,96334.00
2022-12-16T12:25:56.292Z,96341.00
2022-12-16T12:29:05.972Z,96334.00
2022-12-16T12:32:04.481Z,96338.00
2022-12-16T12:35:03.873Z,96336.00
2022-12-16T12:37:58.757Z,96334.00
2022-12-16T12:41:08.488Z,96351.00
2022-12-16T12:44:13.363Z,96353.00
2022-12-16T12:47:12.974Z,96359.00
2022-12-16T12:50:08.949Z,96315.00
2022-12-16T12:53:33.697Z,96356.00
2022-12-16T12:56:29.919Z,96376.00
2022-12-16T12:59:30.409Z,96370.00
2022-12-16T13:02:18.610Z,96378.00
2022-12-16T13:05:09.223Z,96380.00
2022-12-16T13:07:54.649Z,96391.00
2022-12-16T13:11:00.453Z,96376.00
2022-12-16T13:13:52.305Z,96376.00
2022-12-16T13:17:25.976Z,96402.00
2022-12-16T13:20:15.033Z,96386.00
2022-12-16T13:23:03.595Z,96397.00
2022-12-16T13:25:59.155Z,96403.00
2022-12-16T13:28:51.267Z,96292.00
2022-12-16T13:31:38.271Z,96397.00
2022-12-16T13:34:41.387Z,96416.00
2022-12-16T13:37:43.444Z,96409.00
2022-12-16T13:40:38.059Z,96389.00
2022-12-16T13:43:24.685Z,96336.00
2022-12-16T13:46:34.935Z,96406.00
2022-12-16T13:52:37.426Z,96428.00
2022-12-16T13:55:34.973Z,96430.00
2022-12-16T13:58:37.355Z,96446.00
2022-12-16T14:01:31.412Z,96441.00
2022-12-16T14:04:19.738Z,96450.00
2022-12-16T14:07:05.707Z,96446.00
2022-12-16T14:09:56.274Z,96446.00
2022-12-16T14:13:07.347Z,96465.00
2022-12-16T14:16:08.033Z,96472.00
2022-12-16T14:19:10.486Z,96502.00
2022-12-16T14:22:07.221Z,96492.00
2022-12-16T14:24:57.682Z,96486.00
2022-12-16T14:27:44.200Z,96508.00
2022-12-16T14:30:38.477Z,96488.00
2022-12-16T14:33:42.873Z,96518.00
2022-12-16T14:36:46.264Z,96492.00
2022-12-16T14:39:39.446Z,96504.00
2022-12-16T14:42:38.086Z,96512.00
2022-12-16T14:45:38.721Z,96492.00
2022-12-16T14:48:49.539Z,96511.00
2022-12-16T14:51:43.217Z,96520.00
2022-12-16T14:54:38.337Z,96520.00
2022-12-16T14:57:30.185Z,96531.00
2022-12-16T15:00:32.281Z,96551.00
2022-12-16T15:03:26.979Z,96567.00
2022-12-16T15:06:13.727Z,96542.00
2022-12-16T15:09:09.273Z,96550.00
2022-12-16T15:11:58.845Z,96577.00
2022-12-16T15:14:49.419Z,96560.00
2022-12-16T15:17:40.429Z,96519.00
2022-12-16T15:20:37.507Z,96560.00
2022-12-16T15:23:34.581Z,96578.00
2022-12-16T15:26:20.878Z,96565.00
2022-12-16T15:29:06.237Z,96582.00
2022-12-16T15:32:01.360Z,96576.00
2022-12-16T15:35:03.720Z,96577.00
2022-12-16T15:38:05.613Z,96598.00
2022-12-16T15:40:55.942Z,96598.00
2022-12-16T15:43:48.662Z,96599.00
2022-12-16T15:46:41.267Z,96599.00
2022-12-16T15:49:44.473Z,96600.00
2022-12-16T15:52:57.355Z,96634.00
2022-12-16T15:55:52.571Z,96611.00
2022-12-16T15:58:43.181Z,96555.00
2022-12-16T16:01:32.017Z,96612.00
2022-12-16T16:04:18.297Z,96618.00
2022-12-16T16:07:08.704Z,96526.00
2022-12-16T16:09:57.970Z,96613.00
2022-12-16T16:12:44.698Z,96628.00
2022-12-16T16:15:32.903Z,96640.00
2022-12-16T16:18:23.603Z,96605.00
2022-12-16T16:21:10.167Z,96297.00
2022-12-16T16:23:55.830Z,96515.00
2022-12-16T16:26:46.650Z,96621.00
2022-12-16T16:29:33.331Z,96649.00
2022-12-16T16:32:20.723Z,96638.00
2022-12-16T16:35:06.364Z,96633.00
2022-12-16T16:37:51.902Z,96649.00
2022-12-16T16:40:47.281Z,96644.00
2022-12-16T16:43:35.013Z,96652.00
2022-12-16T16:46:24.409Z,96648.00
2022-12-16T16:49:10.397Z,96660.00
2022-12-16T16:51:55.893Z,96659.00
2022-12-16T16:54:41.503Z,96645.00
2022-12-16T16:57:29.194Z,96642.00
2022-12-16T17:00:15.981Z,96641.00
2022-12-16T17:03:02.273Z,96662.00
2022-12-16T17:05:48.296Z,96634.00
2022-12-16T17:08:33.868Z,96661.00
2022-12-16T17:11:19.869Z,96673.00
2022-12-16T17:14:05.435Z,96688.00
2022-12-16T17:16:52.544Z,96687.00
2022-12-16T17:19:38.063Z,96682.00
2022-12-16T17:22:23.532Z,96692.00
2022-12-16T17:25:09.098Z,96697.00
2022-12-16T17:28:00.078Z,96690.00
2022-12-16T17:30:47.818Z,96693.00
2022-12-16T17:33:35.677Z,96700.00
2022-12-16T17:36:21.680Z,96695.00
2022-12-16T17:39:07.296Z,96717.00
2022-12-16T17:41:53.330Z,96718.00
2022-12-16T17:44:39.079Z,96722.00
2022-12-16T17:47:24.601Z,96744.00
2022-12-16T17:50:11.508Z,96721.00
2022-12-16T17:52:57.562Z,96724.00
2022-12-16T17:55:43.014Z,96720.00
2022-12-16T17:58:31.018Z,96402.00
2022-12-16T18:01:20.319Z,96556.00
2022-12-16T18:04:06.872Z,96714.00
2022-12-16T18:06:54.613Z,96660.00
2022-12-16T18:09:40.481Z,96741.00
2022-12-16T18:12:34.881Z,96746.00
2022-12-16T18:15:20.934Z,96735.00
2022-12-16T18:18:07.579Z,96765.00
2022-12-16T18:20:54.088Z,96736.00
2022-12-16T18:23:41.054Z,96747.00
2022-12-16T18:26:28.876Z,96751.00
2022-12-16T18:29:15.046Z,96752.00
2022-12-16T18:32:00.833Z,96759.00
2022-12-16T18:34:46.611Z,96733.00
2022-12-16T18:37:33.168Z,96751.00
2022-12-16T18:40:20.089Z,96747.00
2022-12-16T18:43:05.764Z,96746.00
2022-12-16T18:45:51.818Z,96743.00
2022-12-16T18:48:37.631Z,96722.00
2022-12-16T18:51:23.741Z,96726.00
2022-12-16T18:54:09.824Z,96723.00
2022-12-16T18:56:56.925Z,96725.00
2022-12-16T18:59:42.801Z,96717.00
2022-12-16T19:02:28.469Z,96727.00
2022-12-16T19:05:14.331Z,96725.00
2022-12-16T19:08:00.234Z,96775.00
2022-12-16T19:10:45.711Z,96775.00
2022-12-16T19:13:33.547Z,96772.00
2022-12-16T19:16:20.707Z,96770.00
2022-12-16T19:19:06.557Z,96790.00
2022-12-16T19:21:56.603Z,96780.00
2022-12-16T19:24:42.868Z,96793.00
2022-12-16T19:27:28.726Z,96801.00
2022-12-16T19:30:30.424Z,96807.00
2022-12-16T19:33:16.560Z,96796.00
2022-12-16T19:36:01.933Z,96808.00
2022-12-16T19:38:47.773Z,96819.00
2022-12-16T19:41:35.446Z,96821.00
2022-12-16T19:44:22.311Z,96767.00
2022-12-16T19:47:09.796Z,96816.00
2022-12-16T19:49:56.351Z,96811.00
2022-12-16T19:52:43.020Z,96811.00
2022-12-16T19:55:29.764Z,96807.00
2022-12-16T19:58:16.373Z,96774.00
2022-12-16T20:01:02.066Z,96816.00
2022-12-16T20:03:49.920Z,96829.00
2022-12-16T20:06:36.166Z,96830.00
2022-12-16T20:09:22.124Z,96827.00
2022-12-16T20:12:07.654Z,96846.00
2022-12-16T20:14:53.445Z,96850.00
2022-12-16T20:17:39.003Z,96826.00
2022-12-16T20:20:27.342Z,96843.00
2022-12-16T20:23:14.831Z,96868.00
2022-12-16T20:26:00.374Z,96831.00
2022-12-16T20:28:42.389Z,96873.00
2022-12-16T20:31:27.811Z,96870.00
2022-12-16T20:34:14.379Z,96863.00
2022-12-16T20:37:01.822Z,96876.00
2022-12-16T20:42:53.506Z,96895.00
2022-12-16T20:45:39.920Z,96896.00
2022-12-16T20:48:26.042Z,96886.00
2022-12-16T20:51:13.047Z,96897.00
2022-12-16T20:54:00.250Z,96900.00
2022-12-16T20:56:47.424Z,96903.00
2022-12-16T20:59:33.146Z,96912.00
2022-12-16T21:02:23.436Z,96911.00
2022-12-16T21:05:10.313Z,96910.00
2022-12-16T21:07:56.880Z,96919.00
2022-12-16T21:10:43.937Z,96921.00
2022-12-16T21:13:33.166Z,96925.00
2022-12-16T21:16:32.476Z,96912.00
2022-12-16T21:19:17.885Z,96943.00
2022-12-16T21:22:03.863Z,96934.00
2022-12-16T21:24:49.369Z,96954.00
2022-12-16T21:27:36.581Z,96940.00
2022-12-16T21:30:23.133Z,96944.00
2022-12-16T21:33:09.032Z,96955.00
2022-12-16T21:35:55.993Z,96957.00
2022-12-16T21:38:42.040Z,96957.00
2022-12-16T21:41:27.505Z,96960.00
2022-12-16T21:44:14.269Z,96951.00
2022-12-16T21:46:59.758Z,96970.00
2022-12-16T21:49:56.794Z,96961.00
2022-12-16T21:52:42.425Z,96968.00
2022-12-16T21:55:39.974Z,96975.00
2022-12-16T21:58:29.614Z,96984.00
2022-12-16T22:01:21.621Z,96987.00
2022-12-16T22:04:07.441Z,96982.00
2022-12-16T22:06:53.009Z,96986.00
2022-12-16T22:09:38.890Z,96992.00
2022-12-16T22:12:27.065Z,96997.00
2022-12-16T22:15:11.846Z,97009.00
2022-12-16T22:17:58.945Z,97012.00
2022-12-16T22:20:45.166Z,96926.00
2022-12-16T22:23:31.127Z,97001.00
2022-12-16T22:26:17.505Z,96930.00
2022-12-16T22:29:03.163Z,97014.00
2022-12-16T22:31:49.821Z,97023.00
2022-12-16T22:34:36.723Z,97014.00
2022-12-16T22:37:22.345Z,97030.00
2022-12-16T22:40:07.863Z,97027.00
2022-12-16T22:42:58.729Z,97027.00
2022-12-16T22:45:44.251Z,97029.00
2022-12-16T22:48:30.741Z,97033.00
2022-12-16T22:51:17.558Z,97044.00
2022-12-16T22:54:05.260Z,97036.00
2022-12-16T22:56:50.896Z,97040.00
2022-12-16T22:59:37.210Z,97020.00
2022-12-16T23:02:22.920Z,97036.00
2022-12-16T23:05:08.433Z,97036.00
2022-12-16T23:07:56.816Z,97046.00
2022-12-16T23:10:42.506Z,97047.00
2022-12-16T23:13:30.754Z,97042.00
2022-12-16T23:16:16.666Z,97031.00
2022-12-16T23:19:02.644Z,97042.00
2022-12-16T23:21:48.185Z,97055.00
2022-12-16T23:24:34.988Z,97057.00
2022-12-16T23:27:21.203Z,97045.00
2022-12-16T23:30:06.692Z,97060.00
2022-12-16T23:32:52.228Z,97050.00
2022-12-16T23:35:39.013Z,97056.00
2022-12-16T23:38:25.563Z,97047.00
2022-12-16T23:41:15.791Z,97032.00
2022-12-16T23:44:01.778Z,97082.00
2022-12-16T23:46:47.949Z,97052.00
2022-12-16T23:49:33.766Z,97058.00
2022-12-16T23:52:30.661Z,97061.00
2022-12-16T23:55:16.330Z,97079.00
2022-12-16T23:58:03.338Z,97067.00
